createdAt,value
2019-01-13T00:00:02.270Z,3.03
2019-01-13T00:05:06.038Z,2.70
2019-01-13T00:10:09.776Z,2.50
2019-01-13T00:15:13.800Z,2.00
2019-01-13T00:20:17.505Z,2.20
2019-01-13T00:25:21.150Z,1.80
2019-01-13T00:30:24.920Z,2.10
2019-01-13T00:35:28.633Z,1.60
2019-01-13T00:40:32.372Z,1.83
2019-01-13T00:45:36.022Z,1.60
2019-01-13T00:50:39.746Z,1.47
2019-01-13T00:55:43.463Z,1.87
2019-01-13T01:00:47.231Z,2.57
2019-01-13T01:05:50.949Z,2.10
2019-01-13T01:10:54.761Z,1.77
2019-01-13T01:15:58.478Z,2.03
2019-01-13T01:21:02.310Z,1.80
2019-01-13T01:26:05.962Z,2.07
2019-01-13T01:31:09.649Z,2.97
2019-01-13T01:36:13.304Z,2.03
2019-01-13T01:41:17.007Z,2.77
2019-01-13T01:46:20.723Z,2.73
2019-01-13T01:51:24.362Z,2.53
2019-01-13T01:56:28.108Z,3.23
2019-01-13T02:01:31.845Z,2.53
2019-01-13T02:06:35.499Z,2.43
2019-01-13T02:11:39.242Z,3.40
2019-01-13T02:16:42.959Z,3.07
2019-01-13T02:21:46.607Z,3.27
2019-01-13T02:26:50.284Z,3.00
2019-01-13T02:31:53.988Z,2.60
2019-01-13T02:36:57.747Z,2.40
2019-01-13T02:42:01.443Z,2.77
2019-01-13T02:47:05.163Z,2.70
2019-01-13T02:52:08.807Z,2.70
2019-01-13T02:57:12.472Z,2.30
2019-01-13T03:02:16.128Z,2.17
2019-01-13T03:07:19.831Z,2.50
2019-01-13T03:12:23.497Z,2.83
2019-01-13T03:17:27.145Z,2.90
2019-01-13T03:22:30.879Z,3.03
2019-01-13T03:27:34.523Z,2.97
2019-01-13T03:32:38.460Z,3.30
2019-01-13T03:37:42.103Z,3.70
2019-01-13T03:42:45.906Z,2.90
2019-01-13T03:47:49.619Z,2.60
2019-01-13T03:52:53.579Z,2.33
2019-01-13T03:57:57.292Z,3.30
2019-01-13T04:03:00.937Z,2.63
2019-01-13T04:08:04.684Z,2.80
2019-01-13T04:13:08.343Z,2.83
2019-01-13T04:18:11.982Z,2.93
2019-01-13T04:23:15.623Z,2.77
2019-01-13T04:28:19.278Z,3.13
2019-01-13T04:33:22.964Z,3.00
2019-01-13T04:38:26.590Z,2.83
2019-01-13T04:43:30.243Z,3.00
2019-01-13T04:48:33.890Z,2.40
2019-01-13T04:53:37.531Z,2.70
2019-01-13T04:58:41.183Z,2.30
2019-01-13T05:03:44.947Z,2.13
2019-01-13T05:08:48.584Z,2.10
2019-01-13T05:13:52.247Z,1.57
2019-01-13T05:18:55.901Z,1.53
2019-01-13T05:23:59.608Z,1.60
2019-01-13T05:29:03.270Z,1.67
2019-01-13T05:34:06.978Z,1.40
2019-01-13T05:39:10.683Z,2.00
2019-01-13T05:44:14.339Z,1.97
2019-01-13T05:49:17.978Z,2.40
2019-01-13T05:54:21.616Z,2.83
2019-01-13T05:59:25.256Z,2.98
2019-01-13T06:04:28.900Z,3.20
2019-01-13T06:09:32.555Z,2.90
2019-01-13T06:14:36.287Z,3.27
2019-01-13T06:19:39.992Z,3.27
2019-01-13T06:24:43.632Z,3.37
2019-01-13T06:29:47.355Z,3.45
2019-01-13T06:34:51.004Z,4.10
2019-01-13T06:39:54.718Z,3.87
2019-01-13T06:44:58.364Z,4.50
2019-01-13T06:50:02.012Z,5.20
2019-01-13T06:55:06.159Z,5.58
2019-01-13T07:00:14.735Z,6.93
2019-01-13T07:05:18.445Z,7.33
2019-01-13T07:10:22.097Z,6.73
2019-01-13T07:15:28.852Z,6.57
2019-01-13T07:20:32.583Z,7.28
2019-01-13T07:25:36.290Z,6.70
2019-01-13T07:30:40.012Z,5.57
2019-01-13T07:35:43.652Z,4.70
2019-01-13T07:40:47.325Z,3.10
2019-01-13T07:45:50.983Z,2.80
2019-01-13T07:50:54.626Z,2.60
2019-01-13T07:55:58.399Z,2.33
2019-01-13T08:01:02.448Z,2.17
2019-01-13T08:06:06.170Z,1.93
2019-01-13T08:11:09.806Z,1.80
2019-01-13T08:16:13.556Z,1.60
2019-01-13T08:21:17.228Z,1.57
2019-01-13T08:26:20.946Z,1.43
2019-01-13T08:31:24.660Z,1.30
2019-01-13T08:36:28.295Z,1.40
2019-01-13T08:41:31.975Z,1.00
2019-01-13T08:46:35.703Z,1.03
2019-01-13T08:51:39.428Z,1.10
2019-01-13T08:56:43.097Z,1.00
2019-01-13T09:01:46.840Z,1.10
2019-01-13T09:06:50.487Z,0.93
2019-01-13T09:11:54.164Z,0.75
2019-01-13T09:16:57.948Z,0.90
2019-01-13T09:22:01.592Z,0.60
2019-01-13T09:27:05.345Z,0.70
2019-01-13T09:32:09.006Z,1.00
2019-01-13T09:37:12.742Z,0.93
2019-01-13T09:42:16.393Z,1.20
2019-01-13T09:47:20.187Z,0.68
2019-01-13T09:52:23.840Z,1.00
2019-01-13T09:57:27.628Z,0.78
2019-01-13T10:02:31.354Z,0.98
2019-01-13T10:07:35.098Z,0.95
2019-01-13T10:12:38.795Z,0.90
2019-01-13T10:17:42.527Z,1.07
2019-01-13T10:22:46.206Z,1.22
2019-01-13T10:27:49.891Z,1.05
2019-01-13T10:32:55.046Z,1.32
2019-01-13T10:37:59.092Z,0.90
2019-01-13T10:43:02.935Z,0.90
2019-01-13T10:48:06.787Z,0.60
2019-01-13T10:53:10.536Z,0.50
2019-01-13T10:58:14.259Z,0.50
2019-01-13T11:03:18.009Z,0.70
2019-01-13T11:08:21.766Z,0.60
2019-01-13T11:13:25.529Z,0.55
2019-01-13T11:18:29.260Z,0.60
2019-01-13T11:23:33.021Z,0.70
2019-01-13T11:28:36.737Z,0.50
2019-01-13T11:33:40.462Z,0.80
2019-01-13T11:38:44.200Z,0.68
2019-01-13T11:43:47.871Z,0.60
2019-01-13T11:48:51.633Z,0.80
2019-01-13T11:53:55.412Z,0.80
2019-01-13T11:58:59.247Z,0.88
2019-01-13T12:04:02.905Z,1.02
2019-01-13T12:09:07.576Z,0.90
2019-01-13T12:14:11.294Z,0.75
2019-01-13T12:19:14.950Z,0.70
2019-01-13T12:24:18.615Z,0.85
2019-01-13T12:29:22.447Z,0.55
2019-01-13T12:34:26.220Z,0.80
2019-01-13T12:39:29.963Z,0.72
2019-01-13T12:44:33.640Z,0.80
2019-01-13T12:49:37.340Z,0.70
2019-01-13T12:54:41.053Z,1.00
2019-01-13T12:59:46.437Z,0.60
2019-01-13T13:04:50.305Z,0.90
2019-01-13T13:09:54.072Z,0.80
2019-01-13T13:14:59.995Z,0.70
2019-01-13T13:20:04.457Z,0.80
2019-01-13T13:25:08.577Z,0.80
2019-01-13T13:30:13.948Z,0.80
2019-01-13T13:35:17.620Z,0.65
2019-01-13T13:40:21.973Z,0.70
2019-01-13T13:45:25.749Z,0.90
2019-01-13T13:50:29.520Z,1.10
2019-01-13T13:55:33.261Z,1.00
2019-01-13T14:00:37.988Z,0.88
2019-01-13T14:05:41.741Z,0.80
2019-01-13T14:10:46.359Z,0.70
2019-01-13T14:15:50.008Z,0.90
2019-01-13T14:20:53.683Z,0.90
2019-01-13T14:25:57.448Z,0.70
2019-01-13T14:31:01.540Z,0.70
2019-01-13T14:36:05.208Z,0.60
2019-01-13T14:41:08.976Z,0.60
2019-01-13T14:46:12.749Z,0.62
2019-01-13T14:51:16.488Z,0.60
2019-01-13T14:56:20.236Z,0.70
2019-01-13T15:01:23.920Z,0.50
2019-01-13T15:06:27.657Z,0.40
2019-01-13T15:11:31.404Z,0.70
2019-01-13T15:16:35.109Z,0.80
2019-01-13T15:21:38.841Z,0.47
2019-01-13T15:26:43.354Z,1.50
2019-01-13T15:31:47.032Z,0.90
2019-01-13T15:36:50.777Z,0.70
2019-01-13T15:41:54.470Z,1.20
2019-01-13T15:46:58.234Z,0.90
2019-01-13T15:52:01.982Z,1.30
2019-01-13T15:57:05.752Z,1.55
2019-01-13T16:02:09.576Z,0.80
2019-01-13T16:07:13.362Z,1.15
2019-01-13T16:12:17.107Z,0.90
2019-01-13T16:17:20.920Z,1.00
2019-01-13T16:22:24.586Z,0.93
2019-01-13T16:27:28.264Z,1.50
2019-01-13T16:32:37.175Z,1.22
2019-01-13T16:37:40.943Z,1.27
2019-01-13T16:42:44.740Z,1.35
2019-01-13T16:47:48.684Z,1.67
2019-01-13T16:52:53.253Z,1.90
2019-01-13T16:57:57.011Z,1.85
2019-01-13T17:03:00.771Z,1.40
2019-01-13T17:08:04.924Z,1.50
2019-01-13T17:13:08.681Z,1.27
2019-01-13T17:18:12.416Z,1.40
2019-01-13T17:23:16.211Z,1.50
2019-01-13T17:28:20.061Z,1.20
2019-01-13T17:33:24.488Z,1.90
2019-01-13T17:38:28.715Z,1.32
2019-01-13T17:43:32.932Z,1.70
2019-01-13T17:48:37.200Z,1.62
2019-01-13T17:53:41.523Z,1.62
2019-01-13T17:58:45.796Z,1.80
2019-01-13T18:03:50.100Z,1.77
2019-01-13T18:08:54.523Z,2.05
2019-01-13T18:13:58.881Z,2.52
2019-01-13T18:19:03.108Z,2.75
2019-01-13T18:24:07.346Z,2.77
2019-01-13T18:29:11.553Z,2.62
2019-01-13T18:34:15.831Z,2.90
2019-01-13T18:39:20.197Z,2.52
2019-01-13T18:44:24.485Z,2.77
2019-01-13T18:49:28.733Z,2.77
2019-01-13T18:54:33.055Z,2.70
2019-01-13T18:59:37.276Z,2.77
2019-01-13T19:04:41.562Z,2.72
2019-01-13T19:09:45.752Z,3.43
2019-01-13T19:14:58.778Z,2.10
2019-01-13T19:20:25.140Z,3.37
2019-01-13T19:25:33.994Z,2.80
2019-01-13T19:30:38.214Z,2.33
2019-01-13T19:35:42.612Z,1.90
2019-01-13T19:40:46.973Z,2.60
2019-01-13T19:45:51.224Z,2.40
2019-01-13T19:50:55.622Z,2.57
2019-01-13T19:55:59.908Z,2.17
2019-01-13T20:01:04.336Z,2.73
2019-01-13T20:06:08.546Z,2.50
2019-01-13T20:11:12.936Z,2.33
2019-01-13T20:16:17.197Z,2.63
2019-01-13T20:21:21.496Z,2.13
2019-01-13T20:26:25.746Z,2.55
2019-01-13T20:31:30.052Z,2.87
2019-01-13T20:36:34.261Z,3.00
2019-01-13T20:41:38.636Z,4.03
2019-01-13T20:46:42.925Z,3.07
2019-01-13T20:51:47.256Z,2.97
2019-01-13T20:56:51.781Z,3.20
2019-01-13T21:01:55.981Z,2.47
2019-01-13T21:07:00.217Z,2.90
2019-01-13T21:12:04.860Z,2.87
2019-01-13T21:17:09.164Z,3.70
2019-01-13T21:22:13.346Z,3.03
2019-01-13T21:27:17.647Z,3.80
2019-01-13T21:32:23.479Z,2.47
2019-01-13T21:37:27.731Z,3.70
2019-01-13T21:42:31.912Z,3.00
2019-01-13T21:47:36.335Z,2.70
2019-01-13T21:52:40.700Z,2.47
2019-01-13T21:57:45.005Z,2.77
2019-01-13T22:02:49.556Z,3.20
2019-01-13T22:07:53.935Z,2.47
2019-01-13T22:12:58.135Z,2.90
2019-01-13T22:18:02.443Z,2.67
2019-01-13T22:23:06.642Z,2.50
2019-01-13T22:28:10.860Z,2.90
2019-01-13T22:33:15.119Z,2.57
2019-01-13T22:38:19.360Z,2.73
2019-01-13T22:43:23.660Z,2.20
2019-01-13T22:48:27.888Z,1.90
2019-01-13T22:53:32.198Z,2.10
2019-01-13T22:58:36.484Z,2.80
2019-01-13T23:03:40.944Z,2.22
2019-01-13T23:08:45.132Z,3.10
2019-01-13T23:13:49.312Z,2.37
2019-01-13T23:18:53.996Z,2.40
2019-01-13T23:23:58.212Z,2.33
2019-01-13T23:29:02.451Z,2.53
2019-01-13T23:34:06.644Z,2.30
2019-01-13T23:39:10.804Z,2.63
2019-01-13T23:44:14.987Z,2.50
2019-01-13T23:49:19.501Z,2.00
2019-01-13T23:54:23.683Z,2.30
2019-01-13T23:59:27.880Z,2.33
